Time;durP1;ratioP1;P1;durP2;ratioP2;P2;SDS_P1;SDS_P2;PMS_P1;PMS_P2;Temp;Humidity;BMP_temperature;BMP_pressure;BME280_temperature;BME280_humidity;BME280_pressure;Samples;Min_cycle;Max_cycle;Signal;HPM_P1;HPM_P2
2022/09/30 00:01:31;;;;;;;1999.90;999.90;;;;;;;11.15;100.00;96826.16;5051002;28;20036;-76
2022/09/30 00:03:57;;;;;;;1999.90;999.90;;;;;;;11.04;100.00;96819.41;5051543;28;20080;-76
2022/09/30 00:06:24;;;;;;;1999.90;999.90;;;;;;;11.02;100.00;96830.69;5051986;28;20052;-77
2022/09/30 00:08:50;;;;;;;1999.90;999.90;;;;;;;10.97;100.00;96835.50;5050755;28;20021;-76
2022/09/30 00:11:27;;;;;;;1999.90;999.90;;;;;;;10.99;100.00;96825.06;5052290;28;20040;-75
2022/09/30 00:13:54;;;;;;;1999.90;999.90;;;;;;;11.01;100.00;96833.72;5051511;28;20080;-74
2022/09/30 00:16:21;;;;;;;1999.90;999.90;;;;;;;11.02;100.00;96832.63;5067578;28;20133;-76
2022/09/30 00:18:46;;;;;;;1999.90;999.90;;;;;;;11.02;100.00;96827.16;5063409;28;20021;-76
2022/09/30 00:21:14;;;;;;;1999.90;999.90;;;;;;;11.09;100.00;96819.22;5051511;28;20040;-76
2022/09/30 00:23:40;;;;;;;1999.90;999.90;;;;;;;11.11;100.00;96825.19;5053752;28;20445;-76
2022/09/30 00:26:10;;;;;;;1999.90;999.90;;;;;;;11.08;100.00;96836.78;5051876;28;20025;-77
2022/09/30 00:28:37;;;;;;;1999.90;999.90;;;;;;;11.08;100.00;96831.31;5054510;28;20049;-77
2022/09/30 00:31:06;;;;;;;1999.90;999.90;;;;;;;11.10;100.00;96829.03;5054949;28;20086;-77
2022/09/30 00:33:31;;;;;;;1999.90;999.90;;;;;;;11.13;100.00;96818.25;5053949;28;20478;-77
2022/09/30 00:35:57;;;;;;;1999.90;999.90;;;;;;;11.14;100.00;96819.06;5053339;28;20036;-77
2022/09/30 00:38:22;;;;;;;1999.90;999.90;;;;;;;11.07;100.00;96822.28;5053534;28;20021;-75
2022/09/30 00:40:48;;;;;;;1999.90;999.90;;;;;;;11.12;100.00;96833.06;5052485;28;20053;-77
2022/09/30 00:43:20;;;;;;;1999.90;999.90;;;;;;;10.99;100.00;96831.34;5052037;28;20490;-76
2022/09/30 00:45:56;;;;;;;1999.90;999.90;;;;;;;10.99;100.00;96819.59;5052264;28;20017;-77
2022/09/30 00:48:31;;;;;;;1999.90;999.90;;;;;;;10.98;100.00;96816.03;5053293;28;20033;-78
2022/09/30 00:50:57;;;;;;;1999.90;999.90;;;;;;;11.08;100.00;96814.88;5053691;28;20040;-78
2022/09/30 00:53:35;;;;;;;1999.90;999.90;;;;;;;11.08;100.00;96820.38;5052617;28;20033;-76
2022/09/30 00:56:06;;;;;;;1999.90;999.90;;;;;;;11.06;100.00;96822.59;5051829;28;20171;-77
2022/09/30 00:58:49;;;;;;;1999.90;999.90;;;;;;;11.05;100.00;96826.50;5050863;28;20394;-77
2022/09/30 01:01:16;;;;;;;1999.90;999.90;;;;;;;11.11;100.00;96822.44;5052146;28;20055;-77
2022/09/30 01:03:55;;;;;;;1999.90;999.90;;;;;;;11.03;100.00;96835.00;5053291;28;20043;-77
2022/09/30 01:06:22;;;;;;;1999.90;999.90;;;;;;;11.06;100.00;96839.03;5052722;28;20033;-76
2022/09/30 01:08:48;;;;;;;1999.90;999.90;;;;;;;11.07;100.00;96837.91;5055645;28;20021;-75
2022/09/30 01:11:14;;;;;;;1999.90;999.90;;;;;;;11.16;100.00;96842.22;5056630;28;20029;-76
2022/09/30 01:13:41;;;;;;;1999.90;999.90;;;;;;;11.21;100.00;96841.25;5057623;28;20055;-77
2022/09/30 01:16:35;;;;;;;1999.90;999.90;;;;;;;11.16;100.00;96846.88;5057780;28;20036;-77
2022/09/30 01:19:12;;;;;;;1999.90;999.90;;;;;;;11.24;100.00;96852.34;5058241;28;20033;-77
2022/09/30 01:21:59;;;;;;;1999.90;999.90;;;;;;;11.22;100.00;96857.34;5058033;28;20029;-77
2022/09/30 01:24:46;;;;;;;1999.90;999.90;;;;;;;11.29;100.00;96860.38;5057473;28;20064;-77
2022/09/30 01:27:29;;;;;;;1999.90;999.90;;;;;;;11.32;100.00;96847.97;5055972;28;20120;-77
2022/09/30 01:30:16;;;;;;;1999.90;999.90;;;;;;;11.32;100.00;96853.44;5055590;28;20110;-75
2022/09/30 01:33:00;;;;;;;1999.90;999.90;;;;;;;11.28;100.00;96847.81;5054319;28;20039;-76
2022/09/30 01:35:56;;;;;;;1999.90;999.90;;;;;;;11.29;100.00;96843.16;5053682;28;20449;-77
2022/09/30 01:38:51;;;;;;;1999.90;999.90;;;;;;;11.28;100.00;96834.13;5056250;28;20059;-77
2022/09/30 01:41:27;;;;;;;1999.90;999.90;;;;;;;11.27;100.00;96821.59;5053576;28;20052;-76
2022/09/30 01:44:30;;;;;;;1999.90;999.90;;;;;;;11.22;100.00;96820.94;5052309;28;20028;-76
2022/09/30 01:47:09;;;;;;;1999.90;999.90;;;;;;;11.22;100.00;96827.22;5053231;28;20068;-76
2022/09/30 01:49:44;;;;;;;1999.90;999.90;;;;;;;11.28;100.00;96833.31;5053543;28;20056;-76
2022/09/30 01:52:22;;;;;;;1999.90;999.90;;;;;;;11.30;100.00;96833.81;5053126;28;20025;-76
2022/09/30 01:55:15;;;;;;;1999.90;999.90;;;;;;;11.35;100.00;96830.91;5053045;28;20025;-77
2022/09/30 01:58:01;;;;;;;1999.90;999.90;;;;;;;11.38;100.00;96840.38;5053278;28;20091;-77
2022/09/30 02:00:27;;;;;;;1999.90;999.90;;;;;;;11.35;100.00;96847.31;5053836;28;20500;-75
2022/09/30 02:02:58;;;;;;;1999.90;999.90;;;;;;;11.36;100.00;96854.41;5053452;28;20068;-76
2022/09/30 02:05:39;;;;;;;1999.90;999.90;;;;;;;11.41;100.00;96858.88;5053241;28;20478;-76
2022/09/30 02:08:13;;;;;;;1999.90;999.90;;;;;;;11.46;100.00;96867.75;5053389;28;20029;-76
2022/09/30 02:10:46;;;;;;;1999.90;999.90;;;;;;;11.41;100.00;96870.66;5053456;28;20482;-76
2022/09/30 02:13:19;;;;;;;1999.90;999.90;;;;;;;11.42;100.00;96866.78;5053103;28;20033;-76
2022/09/30 02:15:51;;;;;;;1999.90;999.90;;;;;;;11.47;100.00;96866.59;5053071;28;20021;-77
2022/09/30 02:18:30;;;;;;;1999.90;999.90;;;;;;;11.57;100.00;96871.72;5052163;28;20032;-76
2022/09/30 02:21:00;;;;;;;1999.90;999.90;;;;;;;11.56;100.00;96883.81;5054175;28;20036;-76
2022/09/30 02:23:29;;;;;;;1999.90;999.90;;;;;;;11.57;100.00;96893.63;5053723;28;20461;-77
2022/09/30 02:26:06;;;;;;;1999.90;999.90;;;;;;;11.56;100.00;96889.28;5054442;28;20047;-77
2022/09/30 02:28:33;;;;;;;1999.90;999.90;;;;;;;11.50;100.00;96893.31;5054535;28;20036;-77
2022/09/30 02:31:02;;;;;;;1999.90;999.90;;;;;;;11.45;100.00;96888.03;5052989;28;20140;-77
2022/09/30 02:33:53;;;;;;;1999.90;999.90;;;;;;;11.42;100.00;96891.44;5054457;28;20083;-77
2022/09/30 02:36:27;;;;;;;1999.90;999.90;;;;;;;11.30;100.00;96894.03;5054805;28;20045;-78
2022/09/30 02:39:01;;;;;;;1999.90;999.90;;;;;;;11.37;100.00;96899.81;5056602;28;20092;-77
2022/09/30 02:41:31;;;;;;;1999.90;999.90;;;;;;;11.39;100.00;96897.56;5056890;28;20552;-76
2022/09/30 02:44:01;;;;;;;1999.90;999.90;;;;;;;11.32;100.00;96897.25;5055045;28;20024;-77
2022/09/30 02:46:39;;;;;;;1999.90;999.90;;;;;;;11.42;100.00;96894.16;5055765;28;20044;-77
2022/09/30 02:49:10;;;;;;;1999.90;999.90;;;;;;;11.33;100.00;96893.41;5056368;28;20037;-77
2022/09/30 02:52:00;;;;;;;1999.90;999.90;;;;;;;11.39;100.00;96896.75;5055602;28;20029;-77
2022/09/30 02:55:08;;;;;;;1999.90;999.90;;;;;;;11.40;100.00;96899.19;5056543;28;20136;-76
2022/09/30 02:58:03;;;;;;;1999.90;999.90;;;;;;;11.42;100.00;96902.38;5056296;28;20036;-76
2022/09/30 03:00:28;;;;;;;1999.90;999.90;;;;;;;11.39;100.00;96897.56;5057433;28;20370;-77
2022/09/30 03:03:01;;;;;;;1999.90;999.90;;;;;;;11.48;100.00;96900.28;5057801;28;20017;-77
2022/09/30 03:05:27;;;;;;;1999.90;999.90;;;;;;;11.38;100.00;96895.13;5058781;28;20075;-77
2022/09/30 03:07:53;;;;;;;1999.90;999.90;;;;;;;11.43;100.00;96905.94;5057033;28;20010;-78
2022/09/30 03:10:18;;;;;;;1999.90;999.90;;;;;;;11.44;100.00;96913.81;5057986;28;20025;-78
2022/09/30 03:12:54;;;;;;;1999.90;999.90;;;;;;;11.40;100.00;96923.81;5057789;28;20052;-77
2022/09/30 03:15:44;;;;;;;1999.90;999.90;;;;;;;11.31;100.00;96914.81;5052988;28;20032;-76
2022/09/30 03:18:21;;;;;;;1999.90;999.90;;;;;;;11.33;100.00;96926.25;5052416;28;20132;-76
2022/09/30 03:20:49;;;;;;;1999.90;999.90;;;;;;;11.33;100.00;96926.25;5053104;28;20033;-76
2022/09/30 03:23:24;;;;;;;1999.90;999.90;;;;;;;11.33;100.00;96919.97;5052864;28;20047;-76
2022/09/30 03:26:03;;;;;;;1999.90;999.90;;;;;;;11.41;100.00;96943.78;5051586;28;20033;-75
2022/09/30 03:29:16;;;;;;;1999.90;999.90;;;;;;;11.38;100.00;96961.66;5052753;28;20361;-75
2022/09/30 03:32:04;;;;;;;1999.90;999.90;;;;;;;11.41;100.00;96958.28;5045477;28;20049;-75
2022/09/30 03:34:58;;;;;;;1999.90;999.90;;;;;;;11.45;100.00;96970.19;5052771;28;20163;-74
2022/09/30 03:37:51;;;;;;;1999.90;999.90;;;;;;;11.48;100.00;96964.06;5052590;28;20557;-75
2022/09/30 03:40:38;;;;;;;1999.90;999.90;;;;;;;11.49;100.00;96968.41;5055446;28;20041;-76
2022/09/30 03:43:18;;;;;;;1999.90;999.90;;;;;;;11.51;100.00;96971.63;5059198;28;20025;-76
2022/09/30 03:45:58;;;;;;;1999.90;999.90;;;;;;;11.48;100.00;96971.47;5051769;28;20087;-75
2022/09/30 03:48:26;;;;;;;1999.90;999.90;;;;;;;11.33;100.00;96969.25;5049844;28;20029;-75
2022/09/30 03:50:52;;;;;;;1999.90;999.90;;;;;;;11.40;100.00;96972.31;5050273;28;20021;-75
2022/09/30 03:53:17;;;;;;;1999.90;999.90;;;;;;;11.43;100.00;96972.47;5051150;28;20144;-75
2022/09/30 03:55:48;;;;;;;1999.90;999.90;;;;;;;11.43;100.00;96972.47;5050176;28;20123;-76
2022/09/30 03:58:16;;;;;;;1999.90;999.90;;;;;;;11.44;100.00;96973.25;5050275;28;20036;-75
2022/09/30 04:00:47;;;;;;;1999.90;999.90;;;;;;;11.45;100.00;96977.59;5051458;28;20037;-76
2022/09/30 04:03:13;;;;;;;1999.90;999.90;;;;;;;11.47;100.00;96969.84;5051417;28;20029;-75
2022/09/30 04:05:38;;;;;;;1999.90;999.90;;;;;;;11.39;100.00;96976.16;5052724;28;20029;-77
2022/09/30 04:08:04;;;;;;;1999.90;999.90;;;;;;;11.35;100.00;96988.88;5052588;28;20025;-76
2022/09/30 04:10:30;;;;;;;1999.90;999.90;;;;;;;11.45;100.00;97008.53;5053343;28;20475;-77
2022/09/30 04:12:56;;;;;;;1999.90;999.90;;;;;;;11.40;100.00;97008.69;5053386;28;20039;-77
2022/09/30 04:15:21;;;;;;;1999.90;999.90;;;;;;;11.40;100.00;97016.91;5052676;28;20021;-77
2022/09/30 04:17:47;;;;;;;1999.90;999.90;;;;;;;11.47;100.00;97025.44;5051931;28;20044;-77
2022/09/30 04:20:12;;;;;;;1999.90;999.90;;;;;;;11.48;100.00;97031.72;5052418;28;20017;-76
2022/09/30 04:22:37;;;;;;;1999.90;999.90;;;;;;;11.56;100.00;97025.44;5051224;28;20032;-76
2022/09/30 04:25:03;;;;;;;1999.90;999.90;;;;;;;11.50;100.00;97019.31;5051944;28;20021;-75
2022/09/30 04:27:29;;;;;;;1999.90;999.90;;;;;;;11.55;100.00;97021.88;5052448;28;20059;-76
2022/09/30 04:29:54;;;;;;;1999.90;999.90;;;;;;;11.51;100.00;97014.63;5052461;28;20028;-77
2022/09/30 04:32:21;;;;;;;1999.90;999.90;;;;;;;11.52;100.00;97010.78;5052312;28;20123;-77
2022/09/30 04:34:46;;;;;;;1999.90;999.90;;;;;;;11.45;100.00;97008.53;5051750;28;20482;-78
2022/09/30 04:37:12;;;;;;;1999.90;999.90;;;;;;;11.43;100.00;97013.53;5051698;28;20033;-77
2022/09/30 04:39:38;;;;;;;1999.90;999.90;;;;;;;11.39;100.00;97001.59;5051682;28;20056;-77
2022/09/30 04:42:03;;;;;;;1999.90;999.90;;;;;;;11.32;100.00;96995.81;5053960;28;20083;-77
2022/09/30 04:44:29;;;;;;;1999.90;999.90;;;;;;;11.37;100.00;97000.34;5055676;28;20087;-76
2022/09/30 04:46:55;;;;;;;1999.90;999.90;;;;;;;11.37;100.00;97006.59;5055447;28;20544;-78
2022/09/30 04:49:20;;;;;;;1999.90;999.90;;;;;;;11.41;100.00;97012.22;5055129;28;20028;-75
2022/09/30 05:02:31;;;;;;;1999.90;999.90;;;;;;;11.24;100.00;97033.00;5087916;27;20383;-76
2022/09/30 05:04:56;;;;;;;1999.90;999.90;;;;;;;11.32;100.00;97028.66;5084175;28;20040;-75
2022/09/30 05:07:22;;;;;;;1999.90;999.90;;;;;;;11.33;100.00;97043.97;5067301;28;20055;-76
2022/09/30 05:09:47;;;;;;;1999.90;999.90;;;;;;;11.32;100.00;97050.56;5067378;28;20103;-76
2022/09/30 05:12:14;;;;;;;1999.90;999.90;;;;;;;11.31;100.00;97062.63;5066330;28;20571;-76
2022/09/30 05:14:39;;;;;;;1999.90;999.90;;;;;;;11.26;100.00;97068.28;5056669;28;20031;-76
2022/09/30 05:17:05;;;;;;;1999.90;999.90;;;;;;;11.33;100.00;97074.09;5087467;28;20028;-76
2022/09/30 05:19:30;;;;;;;1999.90;999.90;;;;;;;11.37;100.00;97074.25;5087419;28;20024;-76
2022/09/30 05:21:55;;;;;;;1999.90;999.90;;;;;;;11.39;100.00;97075.53;5087639;28;20024;-77
2022/09/30 05:24:21;;;;;;;1999.90;999.90;;;;;;;11.48;100.00;97068.13;5086601;28;20074;-76
2022/09/30 05:26:46;;;;;;;1999.90;999.90;;;;;;;11.53;100.00;97069.88;5087045;28;20032;-76
2022/09/30 05:29:11;;;;;;;1999.90;999.90;;;;;;;11.65;100.00;97073.56;5085925;28;20106;-76
2022/09/30 05:31:37;;;;;;;1999.90;999.90;;;;;;;11.69;100.00;97071.81;5086372;28;20037;-77
2022/09/30 05:34:03;;;;;;;1999.90;999.90;;;;;;;11.71;100.00;97075.06;5086109;28;20028;-79
2022/09/30 05:36:28;;;;;;;1999.90;999.90;;;;;;;11.70;100.00;97087.16;5067973;28;20021;-76
2022/09/30 05:38:53;;;;;;;1999.90;999.90;;;;;;;11.83;100.00;97090.84;5086751;28;20028;-76
2022/09/30 05:41:19;;;;;;;1999.90;999.90;;;;;;;11.98;100.00;97103.22;5087248;28;20476;-77
2022/09/30 05:43:46;;;;;;;1999.90;999.90;;;;;;;12.03;100.00;97103.06;5086996;28;20016;-74
2022/09/30 05:46:12;;;;;;;1999.90;999.90;;;;;;;12.04;100.00;97115.63;5087155;28;20123;-74
2022/09/30 05:48:38;;;;;;;1999.90;999.90;;;;;;;12.00;100.00;97109.19;5086971;28;20021;-75
2022/09/30 05:51:03;;;;;;;1999.90;999.90;;;;;;;12.13;100.00;97116.41;5083605;28;20504;-74
2022/09/30 05:53:30;;;;;;;1999.90;999.90;;;;;;;12.11;100.00;97126.91;5066086;28;20374;-74
2022/09/30 05:55:56;;;;;;;1999.90;999.90;;;;;;;12.18;100.00;97127.22;5067645;28;20062;-76
2022/09/30 05:58:23;;;;;;;1999.90;999.90;;;;;;;12.22;100.00;97133.66;5067626;28;20037;-75
2022/09/30 06:00:49;;;;;;;1999.90;999.90;;;;;;;12.20;100.00;97130.44;5066781;28;20106;-76
2022/09/30 06:03:15;;;;;;;1999.90;999.90;;;;;;;12.14;100.00;97131.75;5055395;28;20032;-77
2022/09/30 06:05:41;;;;;;;1999.90;999.90;;;;;;;12.16;100.00;97132.22;5052985;28;20438;-77
2022/09/30 06:08:06;;;;;;;1999.90;999.90;;;;;;;12.24;100.00;97143.19;5053919;28;20100;-75
2022/09/30 06:10:33;;;;;;;1999.90;999.90;;;;;;;12.37;100.00;97152.34;5053272;28;20029;-75
2022/09/30 06:13:01;;;;;;;1999.90;999.90;;;;;;;12.51;100.00;97160.34;5053261;28;20025;-76
2022/09/30 06:15:26;;;;;;;1999.90;999.90;;;;;;;12.61;100.00;97171.00;5057317;28;20056;-77
2022/09/30 06:17:55;;;;;;;1999.90;999.90;;;;;;;12.80;100.00;97166.72;5060315;28;20441;-78
2022/09/30 06:20:20;;;;;;;1999.90;999.90;;;;;;;12.96;100.00;97174.41;5059287;28;20021;-77
2022/09/30 06:22:46;;;;;;;1999.90;999.90;;;;;;;13.16;100.00;97181.91;5053160;28;20082;-78
2022/09/30 06:25:11;;;;;;;1999.90;999.90;;;;;;;13.33;100.00;97187.34;5056602;28;20489;-75
2022/09/30 06:27:37;;;;;;;1999.90;999.90;;;;;;;13.46;100.00;97189.03;5058008;28;20025;-75
2022/09/30 06:30:04;;;;;;;1999.90;999.90;;;;;;;13.71;100.00;97188.06;5059526;28;20396;-73
2022/09/30 06:32:32;;;;;;;1999.90;999.90;;;;;;;14.11;100.00;97190.34;5061541;28;20021;-76
2022/09/30 06:34:58;;;;;;;1999.90;999.90;;;;;;;14.23;100.00;97195.88;5060359;28;20032;-76
2022/09/30 06:37:24;;;;;;;1999.90;999.90;;;;;;;14.13;100.00;97210.84;5059373;28;20604;-77
2022/09/30 06:39:50;;;;;;;1999.90;999.90;;;;;;;14.23;100.00;97210.44;5057918;28;20759;-75
2022/09/30 06:42:16;;;;;;;1999.90;999.90;;;;;;;14.50;100.00;97211.84;5059384;28;20499;-75
2022/09/30 06:44:43;;;;;;;1999.90;999.90;;;;;;;14.31;100.00;97209.59;5056900;28;20085;-75
2022/09/30 06:47:09;;;;;;;1999.90;999.90;;;;;;;14.18;100.00;97215.34;5058494;28;20020;-75
2022/09/30 06:49:34;;;;;;;1999.90;999.90;;;;;;;14.20;100.00;97218.56;5060868;28;20074;-76
2022/09/30 06:52:00;;;;;;;1999.90;999.90;;;;;;;14.11;100.00;97223.34;5055255;28;20028;-76
2022/09/30 06:54:29;;;;;;;1999.90;999.90;;;;;;;14.01;100.00;97229.22;5058505;28;20397;-75
2022/09/30 06:56:56;;;;;;;1999.90;999.90;;;;;;;14.15;100.00;97230.59;5059813;28;20047;-76
2022/09/30 06:59:25;;;;;;;1999.90;999.90;;;;;;;14.13;100.00;97240.28;5056974;28;20114;-75
2022/09/30 07:01:51;;;;;;;1999.90;999.90;;;;;;;14.26;100.00;97233.72;5062695;28;20048;-75
2022/09/30 07:04:16;;;;;;;1999.90;999.90;;;;;;;14.28;100.00;97234.22;5059246;28;20183;-74
2022/09/30 07:06:41;;;;;;;1999.90;999.90;;;;;;;14.27;100.00;97229.84;5060038;28;20380;-75
2022/09/30 07:09:08;;;;;;;1999.90;999.90;;;;;;;14.28;100.00;97234.22;5056122;28;20025;-74
2022/09/30 07:11:36;;;;;;;1999.90;999.90;;;;;;;14.30;100.00;97234.66;5051325;28;20408;-75
2022/09/30 07:14:03;;;;;;;1999.90;999.90;;;;;;;14.37;100.00;97230.28;5057175;28;20493;-75
2022/09/30 07:16:29;;;;;;;1999.90;999.90;;;;;;;14.44;100.00;97247.00;5062324;28;20049;-76
2022/09/30 07:18:55;;;;;;;1999.90;999.90;;;;;;;14.64;100.00;97242.63;5065590;28;20028;-75
2022/09/30 07:21:20;;;;;;;1999.90;999.90;;;;;;;14.75;100.00;97252.09;5068787;28;20024;-73
2022/09/30 07:23:46;;;;;;;1999.90;999.90;;;;;;;14.97;100.00;97257.16;5054494;28;20056;-75
2022/09/30 07:26:16;;;;;;;1999.90;999.90;;;;;;;15.16;100.00;97255.84;5049956;28;20032;-75
2022/09/30 07:28:42;;;;;;;1999.90;999.90;;;;;;;15.18;100.00;97264.56;5051383;28;20116;-75
2022/09/30 07:31:17;;;;;;;1999.90;999.90;;;;;;;15.16;100.00;97261.34;5050566;28;20163;-74
2022/09/30 07:33:44;;;;;;;1999.90;999.90;;;;;;;15.10;100.00;97271.00;5049907;28;20032;-76
2022/09/30 07:36:11;;;;;;;1999.90;999.90;;;;;;;15.19;100.00;97277.22;5050573;28;20145;-74
2022/09/30 07:38:39;;;;;;;1999.90;999.90;;;;;;;15.29;100.00;97288.56;5048681;28;20025;-74
2022/09/30 07:41:13;;;;;;;1999.90;999.90;;;;;;;15.60;100.00;97292.78;5051139;28;20020;-75
2022/09/30 07:43:41;;;;;;;1999.90;999.90;;;;;;;15.60;100.00;97288.06;5051015;28;20025;-75
2022/09/30 07:46:10;;;;;;;1999.90;999.90;;;;;;;15.91;100.00;97293.78;5050887;28;20025;-73
2022/09/30 07:51:05;;;;;;;1999.90;999.90;;;;;;;16.17;100.00;97306.41;5053380;28;20035;-75
2022/09/30 07:53:32;;;;;;;1999.90;999.90;;;;;;;16.33;100.00;97310.06;5053306;28;20108;-74
2022/09/30 07:56:02;;;;;;;1999.90;999.90;;;;;;;16.78;100.00;97318.13;5048172;28;20132;-75
2022/09/30 07:58:28;;;;;;;1999.90;999.90;;;;;;;17.09;100.00;97321.81;5049577;28;20174;-73
2022/09/30 08:00:53;;;;;;;1999.90;999.90;;;;;;;17.27;100.00;97322.28;5049360;28;20076;-75
2022/09/30 08:03:18;;;;;;;1999.90;999.90;;;;;;;17.19;100.00;97330.75;5050566;28;20087;-74
2022/09/30 08:05:44;;;;;;;1999.90;999.90;;;;;;;17.45;100.00;97331.03;5050870;28;20028;-73
2022/09/30 08:08:11;;;;;;;1999.90;999.90;;;;;;;17.96;100.00;97332.78;5050545;28;20029;-75
2022/09/30 08:10:36;;;;;;;1999.90;999.90;;;;;;;18.43;100.00;97334.66;5050309;28;20024;-76
2022/09/30 08:13:02;;;;;;;1999.90;999.90;;;;;;;17.55;100.00;97336.06;5050126;28;20047;-74
2022/09/30 08:15:27;;;;;;;1999.90;999.90;;;;;;;17.62;100.00;97327.97;5048840;28;20025;-75
2022/09/30 08:17:52;;;;;;;1999.90;999.90;;;;;;;17.12;100.00;97331.34;5050073;28;20060;-75
2022/09/30 08:20:18;;;;;;;1999.90;999.90;;;;;;;17.06;100.00;97344.63;5050352;28;20032;-74
2022/09/30 08:22:43;;;;;;;1999.90;999.90;;;;;;;18.04;100.00;97345.63;5048667;28;20028;-75
2022/09/30 08:25:08;;;;;;;1999.90;999.90;;;;;;;20.22;100.00;97348.47;5049828;28;20055;-74
2022/09/30 08:27:34;;;;;;;1999.90;999.90;;;;;;;20.18;100.00;97353.16;5050221;28;20025;-75
2022/09/30 08:29:59;;;;;;;1999.90;999.90;;;;;;;19.26;100.00;97345.94;5050036;28;20055;-74
2022/09/30 08:32:24;;;;;;;1999.90;999.90;;;;;;;17.75;100.00;97348.84;5050561;28;20083;-74
2022/09/30 08:34:50;;;;;;;1999.90;999.90;;;;;;;17.14;100.00;97346.41;5049864;28;20553;-75
2022/09/30 08:37:15;;;;;;;1999.90;999.90;;;;;;;16.71;100.00;97334.50;5050044;28;20091;-74
2022/09/30 08:39:42;;;;;;;1999.90;999.90;;;;;;;16.32;100.00;97347.13;5050011;28;20043;-75
2022/09/30 08:42:18;;;;;;;1999.90;999.90;;;;;;;15.76;100.00;97357.91;5049868;28;20040;-75
2022/09/30 08:44:46;;;;;;;1999.90;999.90;;;;;;;15.45;100.00;97360.38;5049719;28;20033;-76
2022/09/30 08:47:29;;;;;;;1999.90;999.90;;;;;;;16.03;100.00;97357.25;5049893;28;20396;-74
2022/09/30 08:50:06;;;;;;;1999.90;999.90;;;;;;;15.70;100.00;97364.81;5056498;28;20485;-75
2022/09/30 08:52:44;;;;;;;1999.90;999.90;;;;;;;15.51;100.00;97356.28;5069794;28;20017;-74
2022/09/30 08:55:19;;;;;;;1999.90;999.90;;;;;;;15.39;100.00;97368.06;5069585;28;20092;-74
2022/09/30 08:57:45;;;;;;;1999.90;999.90;;;;;;;15.52;100.00;97379.94;5069859;28;20055;-73
2022/09/30 09:00:15;;;;;;;1999.90;999.90;;;;;;;15.61;100.00;97377.91;5070022;28;20554;-74
2022/09/30 09:02:50;;;;;;;1999.90;999.90;;;;;;;15.86;100.00;97374.03;5069957;28;20066;-73
2022/09/30 09:05:19;;;;;;;;;;;;;;;16.13;100.00;97380.84;5070899;28;20397;-74
2022/09/30 09:08:01;;;;;;;1999.90;999.90;;;;;;;16.14;100.00;97398.16;5069016;28;20380;-73
2022/09/30 09:10:29;;;;;;;1999.90;999.90;;;;;;;16.13;100.00;97397.38;5063495;28;20501;-76
2022/09/30 09:13:11;;;;;;;1999.90;999.90;;;;;;;16.53;100.00;97383.66;5049874;28;20086;-75
2022/09/30 09:15:39;;;;;;;1999.90;999.90;;;;;;;16.71;100.00;97375.94;5047776;28;20319;-74
2022/09/30 09:18:04;;;;;;;1999.90;999.90;;;;;;;17.22;100.00;97383.38;5048359;28;20108;-75
2022/09/30 09:20:40;;;;;;;1999.90;999.90;;;;;;;17.59;100.00;97389.53;5048887;28;20109;-73
2022/09/30 09:23:10;;;;;;;1999.90;999.90;;;;;;;18.27;100.00;97395.59;5048847;28;20063;-75
2022/09/30 09:25:36;;;;;;;1999.90;999.90;;;;;;;18.46;100.00;97397.63;5051841;28;20047;-76
2022/09/30 09:28:18;;;;;;;1999.90;999.90;;;;;;;18.46;100.00;97411.47;5053967;28;20104;-73
2022/09/30 09:30:50;;;;;;;1999.90;999.90;;;;;;;17.05;100.00;97409.31;5047748;28;20034;-74
2022/09/30 09:33:21;;;;;;;1999.90;999.90;;;;;;;16.95;100.00;97409.81;5049363;28;20151;-76
2022/09/30 09:35:58;;;;;;;1999.90;999.90;;;;;;;17.17;100.00;97419.53;5048722;28;20016;-74
2022/09/30 09:38:34;;;;;;;1999.90;999.90;;;;;;;17.17;100.00;97427.00;5051850;28;20504;-74
2022/09/30 09:41:18;;;;;;;1999.90;999.90;;;;;;;17.42;100.00;97420.22;5052595;28;20036;-73
2022/09/30 09:43:59;;;;;;;1999.90;999.90;;;;;;;17.88;100.00;97425.09;5052449;28;20021;-75
2022/09/30 09:46:43;;;;;;;1999.90;999.90;;;;;;;17.91;100.00;97429.91;5052595;28;20477;-74
2022/09/30 09:49:15;;;;;;;1999.90;999.90;;;;;;;18.24;100.00;97429.56;5052648;28;20036;-75
2022/09/30 09:51:57;;;;;;;1999.90;999.90;;;;;;;18.03;100.00;97427.06;5052661;28;20024;-75
2022/09/30 09:54:27;;;;;;;1999.90;999.90;;;;;;;18.05;100.00;97429.47;5051461;28;20037;-74
2022/09/30 09:56:53;;;;;;;1999.90;999.90;;;;;;;18.03;100.00;97426.25;5052683;28;20025;-75
2022/09/30 09:59:19;;;;;;;1999.90;999.90;;;;;;;18.17;100.00;97421.88;5052608;28;20040;-74
2022/09/30 10:01:48;;;;;;;1999.90;999.90;;;;;;;18.97;100.00;97424.19;5051330;28;20114;-75
2022/09/30 10:04:17;;;;;;;1999.90;999.90;;;;;;;20.22;100.00;97423.47;5052551;28;20029;-76
2022/09/30 10:07:00;;;;;;;1999.90;999.90;;;;;;;21.41;99.31;97435.97;5052022;28;20524;-74
2022/09/30 10:09:34;;;;;;;1999.90;999.90;;;;;;;22.90;85.22;97447.41;5052556;28;20047;-74
2022/09/30 10:12:05;;;;;;;1999.90;999.90;;;;;;;22.75;82.34;97452.09;5052382;28;20021;-76
2022/09/30 10:14:35;;;;;;;1999.90;999.90;;;;;;;22.64;81.13;97455.97;5050842;28;20218;-74
2022/09/30 10:17:03;;;;;;;1999.90;999.90;;;;;;;22.12;83.39;97443.97;5050835;28;20098;-74
2022/09/30 10:19:31;;;;;;;1999.90;999.90;;;;;;;22.07;81.58;97441.53;5051908;28;20033;-73
2022/09/30 10:22:25;;;;;;;1999.90;999.90;;;;;;;21.82;82.54;97437.66;5052179;28;20079;-75
2022/09/30 10:24:51;;;;;;;1999.90;999.90;;;;;;;21.94;83.15;97443.00;5051340;28;20037;-75
2022/09/30 10:28:08;;;;;;;1999.90;999.90;;;;;;;21.72;85.42;97436.38;5052220;28;20021;-75
2022/09/30 10:30:41;;;;;;;1999.90;999.90;;;;;;;21.81;85.78;97430.47;5050100;28;20052;-74
2022/09/30 10:33:20;;;;;;;1999.90;999.90;;;;;;;21.96;87.96;97429.47;5052060;28;20036;-74
2022/09/30 10:35:55;;;;;;;1999.90;999.90;;;;;;;22.53;80.07;97443.94;5051761;28;20033;-75
2022/09/30 10:38:23;;;;;;;1999.90;999.90;;;;;;;22.42;78.73;97441.88;5052068;28;20091;-75
2022/09/30 10:40:50;;;;;;;1999.90;999.90;;;;;;;21.13;82.97;97437.22;5051771;28;20543;-76
2022/09/30 10:43:30;;;;;;;1999.90;999.90;;;;;;;21.49;82.50;97441.25;5051715;28;20112;-76
2022/09/30 10:45:58;;;;;;;1999.90;999.90;;;;;;;21.80;80.24;97437.25;5051975;28;20627;-74
2022/09/30 10:48:27;;;;;;;1999.90;999.90;;;;;;;22.01;80.52;97443.06;5051561;28;20071;-74
2022/09/30 10:50:55;;;;;;;1999.90;999.90;;;;;;;22.17;79.92;97445.63;5050460;28;20336;-75
2022/09/30 10:53:24;;;;;;;1999.90;999.90;;;;;;;20.38;89.25;97439.22;5047508;28;20090;-74
2022/09/30 10:55:50;;;;;;;1999.90;999.90;;;;;;;20.70;80.10;97435.00;5050406;28;20545;-74
2022/09/30 10:58:24;;;;;;;1999.90;999.90;;;;;;;20.20;81.04;97441.69;5051886;28;20021;-75
2022/09/30 11:01:01;;;;;;;1999.90;999.90;;;;;;;19.84;82.04;97431.91;5050363;28;20044;-75
2022/09/30 11:03:47;;;;;;;1999.90;999.90;;;;;;;19.92;83.93;97433.66;5052632;28;20074;-75
2022/09/30 11:06:14;;;;;;;1999.90;999.90;;;;;;;20.00;82.82;97440.94;5049382;28;20152;-75
2022/09/30 11:08:49;;;;;;;1999.90;999.90;;;;;;;19.87;82.61;97447.81;5046973;28;20025;-75
2022/09/30 11:11:23;;;;;;;1999.90;999.90;;;;;;;19.62;81.89;97452.09;5049098;28;20066;-75
2022/09/30 11:14:09;;;;;;;1999.90;999.90;;;;;;;19.47;83.80;97447.44;5051086;28;20032;-75
2022/09/30 11:16:54;;;;;;;1999.90;999.90;;;;;;;19.52;84.38;97447.13;5050032;28;20456;-76
2022/09/30 11:19:47;;;;;;;1999.90;999.90;;;;;;;18.59;88.16;97443.50;5053872;28;20025;-76